createdAt,value
2018-03-18T00:00:01.654Z,49.08
2018-03-18T00:02:32.620Z,49.20
2018-03-18T00:05:00.031Z,49.02
2018-03-18T00:07:27.463Z,48.68
2018-03-18T00:09:54.861Z,48.96
2018-03-18T00:12:22.255Z,49.10
2018-03-18T00:14:49.682Z,49.55
2018-03-18T00:17:17.081Z,49.23
2018-03-18T00:19:44.508Z,48.54
2018-03-18T00:22:12.003Z,49.22
2018-03-18T00:24:39.403Z,49.75
2018-03-18T00:27:06.807Z,49.60
2018-03-18T00:29:34.243Z,49.47
2018-03-18T00:32:01.637Z,49.65
2018-03-18T00:34:29.392Z,50.24
2018-03-18T00:36:56.794Z,50.25
2018-03-18T00:39:24.206Z,49.52
2018-03-18T00:41:51.618Z,50.19
2018-03-18T00:44:19.023Z,50.40
2018-03-18T00:46:46.444Z,50.34
2018-03-18T00:49:13.860Z,50.33
2018-03-18T00:51:53.134Z,50.40
2018-03-18T00:54:20.539Z,49.72
2018-03-18T00:56:48.051Z,49.77
2018-03-18T00:59:15.467Z,50.06
2018-03-18T01:01:42.880Z,50.55
2018-03-18T01:04:10.294Z,50.57
2018-03-18T01:06:37.692Z,50.81
2018-03-18T01:09:05.386Z,51.01
2018-03-18T01:11:32.783Z,51.42
2018-03-18T01:14:00.184Z,51.59
2018-03-18T01:16:27.591Z,51.67
2018-03-18T01:18:55.012Z,50.87
2018-03-18T01:21:22.422Z,51.14
2018-03-18T01:23:49.839Z,51.59
2018-03-18T01:26:17.246Z,51.63
2018-03-18T01:28:44.637Z,51.00
2018-03-18T01:31:12.031Z,50.95
2018-03-18T01:33:39.443Z,51.86
2018-03-18T01:36:06.854Z,51.56
2018-03-18T01:38:34.268Z,51.28
2018-03-18T01:41:01.675Z,51.63
2018-03-18T01:43:29.083Z,51.73
2018-03-18T01:45:56.517Z,51.75
2018-03-18T01:48:23.920Z,51.50
2018-03-18T01:50:51.330Z,50.91
2018-03-18T01:53:21.629Z,50.94
2018-03-18T01:55:49.023Z,50.73
2018-03-18T01:58:16.553Z,50.76
2018-03-18T02:00:43.938Z,51.30
2018-03-18T02:03:11.351Z,51.25
2018-03-18T02:05:38.768Z,50.75
2018-03-18T02:08:06.167Z,51.39
2018-03-18T02:10:33.799Z,50.26
2018-03-18T02:13:01.211Z,50.41
2018-03-18T02:15:28.624Z,50.96
2018-03-18T02:17:57.844Z,50.98
2018-03-18T02:20:25.256Z,50.54
2018-03-18T02:22:52.663Z,51.07
2018-03-18T02:25:20.051Z,51.11
2018-03-18T02:27:47.463Z,51.30
2018-03-18T02:30:14.855Z,50.75
2018-03-18T02:32:42.398Z,50.90
2018-03-18T02:35:09.804Z,51.09
2018-03-18T02:37:37.198Z,50.73
2018-03-18T02:40:04.606Z,50.77
2018-03-18T02:42:32.015Z,50.87
2018-03-18T02:44:59.416Z,50.91
2018-03-18T02:47:26.835Z,50.20
2018-03-18T02:49:54.240Z,49.78
2018-03-18T02:52:21.648Z,50.25
2018-03-18T02:54:49.039Z,50.59
2018-03-18T02:57:16.458Z,49.94
2018-03-18T02:59:43.864Z,50.43
2018-03-18T03:02:11.271Z,50.71
2018-03-18T03:04:38.650Z,50.81
2018-03-18T03:07:06.055Z,50.22
2018-03-18T03:09:33.453Z,50.18
2018-03-18T03:12:00.863Z,50.55
2018-03-18T03:14:28.267Z,50.25
2018-03-18T03:16:55.734Z,50.42
2018-03-18T03:19:23.134Z,51.07
2018-03-18T03:21:50.572Z,51.09
2018-03-18T03:24:17.967Z,51.37
2018-03-18T03:26:45.367Z,51.08
2018-03-18T03:29:12.767Z,50.54
2018-03-18T03:31:40.176Z,51.12
2018-03-18T03:34:07.603Z,51.12
2018-03-18T03:36:34.967Z,51.23
2018-03-18T03:39:02.531Z,51.06
2018-03-18T03:41:29.927Z,51.12
2018-03-18T03:43:57.336Z,51.02
2018-03-18T03:46:24.899Z,51.48
2018-03-18T03:48:52.299Z,51.31
2018-03-18T03:51:19.686Z,52.16
2018-03-18T03:53:47.099Z,51.71
2018-03-18T03:56:14.525Z,51.52
2018-03-18T03:58:41.926Z,51.00
2018-03-18T04:01:09.342Z,51.07
2018-03-18T04:03:36.769Z,51.02
2018-03-18T04:06:04.159Z,51.31
2018-03-18T04:08:31.559Z,51.64
2018-03-18T04:10:58.967Z,51.49
2018-03-18T04:13:26.380Z,51.56
2018-03-18T04:15:53.776Z,51.62
2018-03-18T04:18:21.180Z,51.37
2018-03-18T04:20:48.823Z,51.51
2018-03-18T04:23:16.219Z,51.82
2018-03-18T04:25:43.633Z,51.87
2018-03-18T04:28:11.159Z,51.83
2018-03-18T04:30:38.554Z,52.05
2018-03-18T04:33:05.972Z,51.86
2018-03-18T04:35:33.396Z,52.05
2018-03-18T04:38:00.796Z,51.76
2018-03-18T04:40:28.195Z,51.87
2018-03-18T04:42:55.603Z,52.02
2018-03-18T04:45:23.031Z,52.16
2018-03-18T04:47:50.435Z,52.07
2018-03-18T04:50:17.853Z,51.96
2018-03-18T04:52:45.255Z,52.25
2018-03-18T04:55:13.517Z,52.12
2018-03-18T04:57:40.942Z,51.83
2018-03-18T05:00:08.352Z,51.68
2018-03-18T05:02:35.743Z,52.44
2018-03-18T05:05:03.151Z,52.02
2018-03-18T05:07:30.914Z,51.81
2018-03-18T05:09:58.315Z,52.25
2018-03-18T05:12:25.717Z,52.27
2018-03-18T05:14:53.136Z,51.65
2018-03-18T05:17:20.543Z,51.87
2018-03-18T05:19:47.951Z,51.99
2018-03-18T05:22:15.363Z,52.41
2018-03-18T05:24:42.758Z,52.39
2018-03-18T05:27:10.179Z,52.27
2018-03-18T05:29:37.576Z,51.92
2018-03-18T05:32:04.971Z,52.16
2018-03-18T05:34:32.385Z,52.23
2018-03-18T05:36:59.786Z,52.17
2018-03-18T05:39:27.218Z,52.20
2018-03-18T05:41:54.623Z,51.87
2018-03-18T05:44:22.019Z,51.99
2018-03-18T05:46:49.433Z,52.15
2018-03-18T05:49:16.995Z,52.59
2018-03-18T05:51:44.424Z,52.42
2018-03-18T05:54:11.843Z,52.61
2018-03-18T05:56:39.259Z,52.53
2018-03-18T05:59:06.662Z,51.86
2018-03-18T06:01:34.100Z,51.63
2018-03-18T06:04:01.512Z,52.33
2018-03-18T06:06:28.910Z,51.61
2018-03-18T06:08:56.331Z,51.50
2018-03-18T06:11:23.765Z,51.84
2018-03-18T06:13:51.159Z,51.70
2018-03-18T06:16:18.564Z,51.23
2018-03-18T06:18:45.971Z,51.59
2018-03-18T06:21:13.388Z,51.42
2018-03-18T06:23:40.804Z,51.20
2018-03-18T06:26:08.207Z,51.14
2018-03-18T06:28:35.631Z,51.44
2018-03-18T06:31:03.039Z,50.89
2018-03-18T06:33:30.451Z,51.01
2018-03-18T06:35:57.852Z,50.00
2018-03-18T06:38:25.267Z,49.81
2018-03-18T06:40:52.669Z,49.71
2018-03-18T06:43:20.331Z,49.88
2018-03-18T06:45:47.731Z,49.03
2018-03-18T06:48:15.135Z,49.12
2018-03-18T06:50:42.561Z,48.99
2018-03-18T06:53:09.953Z,48.85
2018-03-18T06:55:37.375Z,48.97
2018-03-18T06:58:04.771Z,48.46
2018-03-18T07:00:32.191Z,47.95
2018-03-18T07:02:59.590Z,47.48
2018-03-18T07:05:27.016Z,45.99
2018-03-18T07:07:54.402Z,44.95
2018-03-18T07:10:21.831Z,43.79
2018-03-18T07:12:49.244Z,43.36
2018-03-18T07:15:16.806Z,43.53
2018-03-18T07:17:44.231Z,43.59
2018-03-18T07:20:11.678Z,42.40
2018-03-18T07:22:39.343Z,42.83
2018-03-18T07:25:06.744Z,42.97
2018-03-18T07:27:34.158Z,41.58
2018-03-18T07:30:01.569Z,41.59
2018-03-18T07:32:28.984Z,42.03
2018-03-18T07:34:56.376Z,40.77
2018-03-18T07:37:23.787Z,39.88
2018-03-18T07:39:51.183Z,40.26
2018-03-18T07:42:18.601Z,40.29
2018-03-18T07:44:45.999Z,40.57
2018-03-18T07:47:13.450Z,40.90
2018-03-18T07:49:40.815Z,42.42
2018-03-18T07:52:08.223Z,43.31
2018-03-18T07:54:35.636Z,43.43
2018-03-18T07:57:03.046Z,43.93
2018-03-18T07:59:30.502Z,45.15
2018-03-18T08:01:57.889Z,44.80
2018-03-18T08:04:25.277Z,44.72
2018-03-18T08:06:52.685Z,44.90
2018-03-18T08:09:20.099Z,44.64
2018-03-18T08:11:47.539Z,44.88
2018-03-18T08:14:14.944Z,44.98
2018-03-18T08:16:42.354Z,43.60
2018-03-18T08:19:09.743Z,43.13
2018-03-18T08:21:37.268Z,41.70
2018-03-18T08:24:04.675Z,41.66
2018-03-18T08:26:32.063Z,41.58
2018-03-18T08:28:59.472Z,41.60
2018-03-18T08:31:26.868Z,41.84
2018-03-18T08:33:54.280Z,41.51
2018-03-18T08:36:21.680Z,40.79
2018-03-18T08:38:49.082Z,40.34
2018-03-18T08:41:16.647Z,40.93
2018-03-18T08:43:44.202Z,40.04
2018-03-18T08:46:11.593Z,40.22
2018-03-18T08:48:38.992Z,40.51
2018-03-18T08:51:06.410Z,40.65
2018-03-18T08:53:33.802Z,40.68
2018-03-18T08:56:01.371Z,40.19
2018-03-18T08:58:28.775Z,40.38
2018-03-18T09:00:56.177Z,40.58
2018-03-18T09:03:23.600Z,39.85
2018-03-18T09:05:51.009Z,40.39
2018-03-18T09:08:18.423Z,40.67
2018-03-18T09:10:45.869Z,40.72
2018-03-18T09:13:13.291Z,41.39
2018-03-18T09:15:40.692Z,41.91
2018-03-18T09:18:08.203Z,41.60
2018-03-18T09:20:35.602Z,41.69
2018-03-18T09:23:03.071Z,40.85
2018-03-18T09:25:30.484Z,40.92
2018-03-18T09:27:57.879Z,41.10
2018-03-18T09:30:25.299Z,41.69
2018-03-18T09:32:52.698Z,41.98
2018-03-18T09:35:20.140Z,42.37
2018-03-18T09:37:47.555Z,42.47
2018-03-18T09:40:14.982Z,42.30
2018-03-18T09:42:42.384Z,41.97
2018-03-18T09:45:09.795Z,42.09
2018-03-18T09:47:37.458Z,42.21
2018-03-18T09:50:04.864Z,42.23
2018-03-18T09:52:32.267Z,42.95
2018-03-18T09:54:59.692Z,43.14
2018-03-18T09:57:27.094Z,44.00
2018-03-18T09:59:54.503Z,42.76
2018-03-18T10:02:21.899Z,44.11
2018-03-18T10:04:49.390Z,43.50
2018-03-18T10:07:16.795Z,43.45
2018-03-18T10:09:44.209Z,43.69
2018-03-18T10:12:11.638Z,42.20
2018-03-18T10:14:39.060Z,42.58
2018-03-18T10:17:06.483Z,42.21
2018-03-18T10:19:33.888Z,42.57
2018-03-18T10:22:01.288Z,42.37
2018-03-18T10:24:28.723Z,41.81
2018-03-18T10:26:56.104Z,42.11
2018-03-18T10:29:23.500Z,42.04
2018-03-18T10:31:51.060Z,42.25
2018-03-18T10:34:18.471Z,42.20
2018-03-18T10:36:45.883Z,41.93
2018-03-18T10:39:13.297Z,42.16
2018-03-18T10:41:40.696Z,41.90
2018-03-18T10:44:08.178Z,41.96
2018-03-18T10:46:36.368Z,42.54
2018-03-18T10:49:03.780Z,40.62
2018-03-18T10:51:31.196Z,40.74
2018-03-18T10:53:58.607Z,40.86
2018-03-18T10:56:26.016Z,41.02
2018-03-18T10:58:53.427Z,40.36
2018-03-18T11:01:26.479Z,39.89
2018-03-18T11:03:59.738Z,39.91
2018-03-18T11:06:27.310Z,39.89
2018-03-18T11:08:54.780Z,40.01
2018-03-18T11:11:22.167Z,39.07
2018-03-18T11:13:49.589Z,39.91
2018-03-18T11:16:17.045Z,39.54
2018-03-18T11:18:44.399Z,39.75
2018-03-18T11:21:11.842Z,39.27
2018-03-18T11:23:39.275Z,39.86
2018-03-18T11:26:06.846Z,39.87
2018-03-18T11:28:34.239Z,39.40
2018-03-18T11:31:01.651Z,38.39
2018-03-18T11:33:29.067Z,39.48
2018-03-18T11:35:56.474Z,40.02
2018-03-18T11:38:23.867Z,39.36
2018-03-18T11:40:51.292Z,37.89
2018-03-18T11:43:18.704Z,38.82
2018-03-18T11:45:46.424Z,37.46
2018-03-18T11:48:13.843Z,37.83
2018-03-18T11:50:41.896Z,38.18
2018-03-18T11:53:09.323Z,38.53
2018-03-18T11:55:36.752Z,38.32
2018-03-18T11:58:04.158Z,37.91
2018-03-18T12:00:31.558Z,38.10
2018-03-18T12:02:58.983Z,38.47
2018-03-18T12:05:26.363Z,38.24
2018-03-18T12:07:53.792Z,37.89
2018-03-18T12:10:21.174Z,37.15
2018-03-18T12:12:48.591Z,37.55
2018-03-18T12:15:16.032Z,37.13
2018-03-18T12:17:43.457Z,37.15
2018-03-18T12:20:10.867Z,37.62
2018-03-18T12:22:38.267Z,38.23
2018-03-18T12:25:05.699Z,38.05
2018-03-18T12:27:33.087Z,37.99
2018-03-18T12:30:00.601Z,39.08
2018-03-18T12:32:27.983Z,38.33
2018-03-18T12:34:55.381Z,37.95
2018-03-18T12:37:22.850Z,36.62
2018-03-18T12:40:02.092Z,37.94
2018-03-18T12:42:41.269Z,38.60
2018-03-18T12:45:08.687Z,37.37
2018-03-18T12:47:36.096Z,36.16
2018-03-18T12:50:03.488Z,36.44
2018-03-18T12:52:30.891Z,36.82
2018-03-18T12:54:58.316Z,35.81
2018-03-18T12:57:25.707Z,35.80
2018-03-18T12:59:53.127Z,36.61
2018-03-18T13:02:20.528Z,36.43
2018-03-18T13:04:47.931Z,36.36
2018-03-18T13:07:15.333Z,36.62
2018-03-18T13:09:42.733Z,37.81
2018-03-18T13:12:10.133Z,37.63
2018-03-18T13:14:37.555Z,37.63
2018-03-18T13:17:05.020Z,38.11
2018-03-18T13:19:32.355Z,37.75
2018-03-18T13:21:59.801Z,37.35
2018-03-18T13:24:27.204Z,36.66
2018-03-18T13:26:54.614Z,35.44
2018-03-18T13:29:22.014Z,37.62
2018-03-18T13:31:49.464Z,36.90
2018-03-18T13:34:16.877Z,37.99
2018-03-18T13:36:44.309Z,37.53
2018-03-18T13:39:12.057Z,36.88
2018-03-18T13:41:39.521Z,37.35
2018-03-18T13:44:06.921Z,37.89
2018-03-18T13:46:34.361Z,37.43
2018-03-18T13:49:01.769Z,38.02
2018-03-18T13:51:29.167Z,38.38
2018-03-18T13:53:56.575Z,37.97
2018-03-18T13:56:23.967Z,39.02
2018-03-18T13:58:51.383Z,38.33
2018-03-18T14:01:18.768Z,37.66
2018-03-18T14:03:46.412Z,37.66
2018-03-18T14:06:13.803Z,38.22
2018-03-18T14:08:41.198Z,37.86
2018-03-18T14:11:08.620Z,38.17
2018-03-18T14:13:36.312Z,38.30
2018-03-18T14:16:03.716Z,38.17
2018-03-18T14:18:31.130Z,37.75
2018-03-18T14:20:58.536Z,38.12
2018-03-18T14:23:25.945Z,38.33
2018-03-18T14:25:53.374Z,37.87
2018-03-18T14:28:20.781Z,38.64
2018-03-18T14:30:48.191Z,39.01
2018-03-18T14:33:15.639Z,38.95
2018-03-18T14:35:43.041Z,38.34
2018-03-18T14:38:10.452Z,39.64
2018-03-18T14:40:38.184Z,39.89
2018-03-18T14:43:05.601Z,39.45
2018-03-18T14:45:32.991Z,39.35
2018-03-18T14:48:00.408Z,39.33
2018-03-18T14:50:27.809Z,39.18
2018-03-18T14:52:55.221Z,39.74
2018-03-18T14:55:22.616Z,39.23
2018-03-18T14:57:50.027Z,38.48
2018-03-18T15:00:17.468Z,38.69
2018-03-18T15:02:44.885Z,38.87
2018-03-18T15:05:12.307Z,39.77
2018-03-18T15:07:39.699Z,39.39
2018-03-18T15:10:07.124Z,38.56
2018-03-18T15:12:34.532Z,38.77
2018-03-18T15:15:01.948Z,38.59
2018-03-18T15:17:29.351Z,39.04
2018-03-18T15:19:56.762Z,39.23
2018-03-18T15:22:24.177Z,39.11
2018-03-18T15:24:51.593Z,39.12
2018-03-18T15:27:19.000Z,38.76
2018-03-18T15:29:46.438Z,39.00
2018-03-18T15:32:13.831Z,39.11
2018-03-18T15:34:41.230Z,38.67
2018-03-18T15:37:08.643Z,38.48
2018-03-18T15:39:36.040Z,38.66
2018-03-18T15:42:03.442Z,39.09
2018-03-18T15:44:30.836Z,39.23
2018-03-18T15:46:58.251Z,38.87
2018-03-18T15:49:25.644Z,39.51
2018-03-18T15:51:53.027Z,38.78
2018-03-18T15:54:20.432Z,38.42
2018-03-18T15:56:47.830Z,37.96
2018-03-18T15:59:15.286Z,37.45
2018-03-18T16:01:42.687Z,37.53
2018-03-18T16:04:10.185Z,38.02
2018-03-18T16:06:37.510Z,37.45
2018-03-18T16:09:06.018Z,37.32
2018-03-18T16:11:33.419Z,37.78
2018-03-18T16:14:00.807Z,37.38
2018-03-18T16:16:28.256Z,37.88
2018-03-18T16:18:55.659Z,37.21
2018-03-18T16:21:23.104Z,37.53
2018-03-18T16:23:50.528Z,37.18
2018-03-18T16:26:17.905Z,36.66
2018-03-18T16:28:45.301Z,36.76
2018-03-18T16:31:14.367Z,37.68
2018-03-18T16:33:41.789Z,37.58
2018-03-18T16:36:09.175Z,37.85
2018-03-18T16:38:36.615Z,37.71
2018-03-18T16:41:03.999Z,37.01
2018-03-18T16:43:31.644Z,36.72
2018-03-18T16:45:59.032Z,36.93
2018-03-18T16:48:26.451Z,37.33
2018-03-18T16:50:53.842Z,36.93
2018-03-18T16:53:21.236Z,36.99
2018-03-18T16:55:48.683Z,36.64
2018-03-18T16:58:16.099Z,37.13
2018-03-18T17:00:43.519Z,37.28
2018-03-18T17:03:10.952Z,37.14
2018-03-18T17:05:38.364Z,36.87
2018-03-18T17:08:05.751Z,37.23
2018-03-18T17:10:33.156Z,37.15
2018-03-18T17:13:00.548Z,37.27
2018-03-18T17:15:27.952Z,37.27
2018-03-18T17:17:55.363Z,37.29
2018-03-18T17:20:22.754Z,37.42
2018-03-18T17:22:50.175Z,37.54
2018-03-18T17:25:17.627Z,37.50
2018-03-18T17:27:45.048Z,37.80
2018-03-18T17:30:12.479Z,37.98
2018-03-18T17:32:40.003Z,37.01
2018-03-18T17:35:07.407Z,37.97
2018-03-18T17:37:34.816Z,37.85
2018-03-18T17:40:03.348Z,37.87
2018-03-18T17:42:30.731Z,38.13
2018-03-18T17:45:09.801Z,38.06
2018-03-18T17:47:48.912Z,37.91
2018-03-18T17:50:28.180Z,38.52
2018-03-18T17:53:07.287Z,38.43
2018-03-18T17:55:34.687Z,38.86
2018-03-18T17:58:02.084Z,38.76
2018-03-18T18:00:29.487Z,38.90
2018-03-18T18:02:56.931Z,39.38
2018-03-18T18:05:24.361Z,39.30
2018-03-18T18:07:51.743Z,39.15
2018-03-18T18:10:19.149Z,38.95
2018-03-18T18:12:46.552Z,39.28
2018-03-18T18:15:13.930Z,39.08
2018-03-18T18:17:41.386Z,39.57
2018-03-18T18:20:08.762Z,39.51
2018-03-18T18:22:36.464Z,39.29
2018-03-18T18:25:03.851Z,39.01
2018-03-18T18:27:31.236Z,39.38
2018-03-18T18:29:58.644Z,39.14
2018-03-18T18:32:26.039Z,38.56
2018-03-18T18:34:53.451Z,38.59
2018-03-18T18:37:20.851Z,38.45
2018-03-18T18:39:48.251Z,38.54
2018-03-18T18:42:15.640Z,38.37
2018-03-18T18:44:43.047Z,38.79
2018-03-18T18:47:10.446Z,38.82
2018-03-18T18:49:37.856Z,38.52
2018-03-18T18:52:05.254Z,38.47
2018-03-18T18:54:32.664Z,37.46
2018-03-18T18:57:00.065Z,37.84
2018-03-18T18:59:27.480Z,37.83
2018-03-18T19:01:54.868Z,37.94
2018-03-18T19:04:22.272Z,37.91
2018-03-18T19:06:49.654Z,37.86
2018-03-18T19:09:17.059Z,37.71
2018-03-18T19:11:44.451Z,37.52
2018-03-18T19:14:11.879Z,37.83
2018-03-18T19:16:39.264Z,37.81
2018-03-18T19:19:06.668Z,37.87
2018-03-18T19:21:34.063Z,38.03
2018-03-18T19:24:01.480Z,38.17
2018-03-18T19:26:28.877Z,38.03
2018-03-18T19:28:56.285Z,37.51
2018-03-18T19:31:23.689Z,37.38
2018-03-18T19:33:51.090Z,37.49
2018-03-18T19:36:18.499Z,37.63
2018-03-18T19:38:45.899Z,37.64
2018-03-18T19:41:13.311Z,37.37
2018-03-18T19:43:40.727Z,37.16
2018-03-18T19:46:08.131Z,37.70
2018-03-18T19:48:35.532Z,37.59
2018-03-18T19:51:03.200Z,37.47
2018-03-18T19:53:30.596Z,36.73
2018-03-18T19:55:58.015Z,37.13
2018-03-18T19:58:25.424Z,37.08
2018-03-18T20:00:52.863Z,37.19
2018-03-18T20:03:20.279Z,37.19
2018-03-18T20:05:47.952Z,36.46
2018-03-18T20:08:15.356Z,36.81
2018-03-18T20:10:42.877Z,36.92
2018-03-18T20:13:10.266Z,36.73
2018-03-18T20:15:37.664Z,36.89
2018-03-18T20:18:05.071Z,37.25
2018-03-18T20:20:32.512Z,37.11
2018-03-18T20:22:59.921Z,37.25
2018-03-18T20:25:27.311Z,37.41
2018-03-18T20:27:54.726Z,37.25
2018-03-18T20:30:22.214Z,36.85
2018-03-18T20:32:49.698Z,37.21
2018-03-18T20:35:17.120Z,37.17
2018-03-18T20:37:44.621Z,37.20
2018-03-18T20:40:12.267Z,37.23
2018-03-18T20:42:39.663Z,37.33
2018-03-18T20:45:07.081Z,37.49
2018-03-18T20:47:34.500Z,37.76
2018-03-18T20:50:08.266Z,37.35
2018-03-18T20:52:36.174Z,37.46
2018-03-18T20:55:03.561Z,37.48
2018-03-18T20:57:30.968Z,37.26
2018-03-18T20:59:58.367Z,37.22
2018-03-18T21:02:25.781Z,37.48
2018-03-18T21:04:53.178Z,37.83
2018-03-18T21:07:20.620Z,37.60
2018-03-18T21:09:48.016Z,37.58
2018-03-18T21:12:15.432Z,37.64
2018-03-18T21:14:42.862Z,38.06
2018-03-18T21:17:10.248Z,38.16
2018-03-18T21:19:37.712Z,38.23
2018-03-18T21:22:05.080Z,38.40
2018-03-18T21:24:32.483Z,38.16
2018-03-18T21:26:59.905Z,37.84
2018-03-18T21:29:27.346Z,38.05
2018-03-18T21:31:54.762Z,38.48
2018-03-18T21:34:22.143Z,38.45
2018-03-18T21:36:49.568Z,38.51
2018-03-18T21:39:16.968Z,38.49
2018-03-18T21:41:44.380Z,38.58
2018-03-18T21:44:11.783Z,38.71
2018-03-18T21:46:39.180Z,38.57
2018-03-18T21:49:06.598Z,38.78
2018-03-18T21:51:34.008Z,39.21
2018-03-18T21:54:01.419Z,38.93
2018-03-18T21:56:28.815Z,39.34
2018-03-18T21:58:56.198Z,39.06
2018-03-18T22:01:23.617Z,39.23
2018-03-18T22:03:51.015Z,39.35
2018-03-18T22:06:18.590Z,39.58
2018-03-18T22:08:46.030Z,39.59
2018-03-18T22:11:13.427Z,39.60
2018-03-18T22:13:40.848Z,39.55
2018-03-18T22:16:08.247Z,39.23
2018-03-18T22:18:35.675Z,39.38
2018-03-18T22:21:03.067Z,38.67
2018-03-18T22:23:30.491Z,39.12
2018-03-18T22:25:57.882Z,39.18
2018-03-18T22:28:25.274Z,39.24
2018-03-18T22:30:52.695Z,39.03
2018-03-18T22:33:20.127Z,38.90
2018-03-18T22:35:47.545Z,38.83
2018-03-18T22:38:14.936Z,39.13
2018-03-18T22:40:42.411Z,39.03
2018-03-18T22:43:09.827Z,39.53
2018-03-18T22:45:37.228Z,39.54
2018-03-18T22:48:04.626Z,39.90
2018-03-18T22:50:32.039Z,39.55
2018-03-18T22:52:59.439Z,39.85
2018-03-18T22:55:26.867Z,39.80
2018-03-18T22:57:54.292Z,39.66
2018-03-18T23:00:21.942Z,39.69
2018-03-18T23:02:49.356Z,39.98
2018-03-18T23:05:16.836Z,39.54
2018-03-18T23:07:44.268Z,39.39
2018-03-18T23:10:11.692Z,39.45
2018-03-18T23:12:39.100Z,39.43
2018-03-18T23:15:06.494Z,39.47
2018-03-18T23:17:33.916Z,39.96
2018-03-18T23:22:35.136Z,40.00
2018-03-18T23:25:02.545Z,39.79
2018-03-18T23:27:29.956Z,39.73
2018-03-18T23:29:57.359Z,39.96
2018-03-18T23:32:24.791Z,40.22
2018-03-18T23:34:52.205Z,40.36
2018-03-18T23:37:19.640Z,40.22
2018-03-18T23:39:47.055Z,40.43
2018-03-18T23:42:14.461Z,40.45
2018-03-18T23:44:42.532Z,40.82
2018-03-18T23:47:09.967Z,40.64
2018-03-18T23:49:37.437Z,40.69
2018-03-18T23:52:04.855Z,40.67
2018-03-18T23:54:32.260Z,41.00
2018-03-18T23:56:59.677Z,40.67
2018-03-18T23:59:27.085Z,41.00
